Details From KHEF - Manassas Rgnl Harry P Davis Fld
To KTGI - Tangier Island
Flight Number -
Tags Decoded
Created
Modified
Stats Distance 98 nm / 181 km
Max Altitude 0 ft / 0 m
Waypoints 5
Social Downloads 1
Likes 0
Share VATSIM

Download

Looking for another format? Having issues loading an existing format? Contact us
Advertisement - Login to hide

Notes

Decoded

Route

KHEF KRMN GRUBY DUPEY KTGI

ID Type Via Altitude Latitude Longitude Leg Dist Tot Dist Heading (true) Name
O KHEF APT - 0 ft / 0 m 38.72669˚ -77.52106˚ - 0 nm - -
KRMN APT - 0 ft / 0 m 38.40329˚ -77.46117˚ 19 nm 19 nm 172° / 172° STAFFORD RGNL
GRUBY FIX - 0 ft / 0 m 38.20817˚ -77.17397˚ 17 nm 37 nm 131° / 131° -
DUPEY FIX - 0 ft / 0 m 38.03689˚ -76.75181˚ 22 nm 59 nm 117° / 117° -
O KTGI APT - 0 ft / 0 m 37.82100˚ -75.99833˚ 37 nm 97 nm 110° / 110° -

Altitude Profile

Advertisement - Login to hide

KHEF

Details ICAO KHEF
Name Manassas Rgnl
Region United States
Timezone America/New_York (UTC-4.0)
Stats Elevation 192 ft / 59 m (AMSL)
Location 38.721572° -77.515875°
Runways 2
Magnetic Variation 10.516° W

METAR

KHEF 231456Z 33012KT 10SM BKN036 OVC048 25/18 A3002 RMK AO2 SLP172 6//// T02500178 53006 PNO $

Decode

TAF

Not found

Departure Runways

ID Width Length Bearing (true) Bearing (mag) Surface Threshold Offset Overrun Length
16L 98 ft / 30 m 5,706 ft / 1,739 m 150.71° 161.23° Asphalt 0 ft / 0 m 151 ft / 46 m
16R 98 ft / 30 m 3,706 ft / 1,130 m 150.70° 161.22° Asphalt 0 ft / 0 m 0 ft / 0 m
34L 98 ft / 30 m 3,706 ft / 1,130 m 330.70° 341.22° Asphalt 0 ft / 0 m 0 ft / 0 m
34R 98 ft / 30 m 5,706 ft / 1,739 m 330.72° 341.24° Asphalt 0 ft / 0 m 151 ft / 46 m

KTGI

Details ICAO KTGI
Name TANGIER ISLAND
Region United States
Timezone America/New_York (UTC-4.0)
Stats Elevation 5 ft / 2 m (AMSL)
Location 37.825083° -75.997666°
Runways 1
Magnetic Variation 11.210° W

METAR

KTGI 231455Z AUTO 29008KT 10SM CLR 25/23 A2999 RMK AO1

Decode

TAF

Not found

Destination Runways

ID Width Length Bearing (true) Bearing (mag) Surface Threshold Offset Overrun Length
02 75 ft / 23 m 3,005 ft / 916 m 7.35° 18.56° Asphalt 0 ft / 0 m 0 ft / 0 m
20 75 ft / 23 m 3,005 ft / 916 m 187.35° 198.56° Asphalt 98 ft / 30 m 0 ft / 0 m